createdAt,value
2018-03-16T00:01:21.614Z,93.00
2018-03-16T00:03:48.975Z,93.30
2018-03-16T00:06:15.625Z,93.30
2018-03-16T00:08:42.281Z,93.30
2018-03-16T00:11:08.907Z,93.40
2018-03-16T00:13:36.304Z,93.50
2018-03-16T00:16:02.960Z,93.50
2018-03-16T00:18:29.588Z,93.60
2018-03-16T00:20:56.198Z,93.50
2018-03-16T00:23:22.876Z,93.60
2018-03-16T00:25:49.489Z,93.80
2018-03-16T00:28:16.110Z,93.80
2018-03-16T00:30:42.827Z,93.80
2018-03-16T00:33:10.187Z,94.00
2018-03-16T00:35:36.820Z,94.00
2018-03-16T00:38:04.252Z,94.00
2018-03-16T00:40:30.878Z,93.90
2018-03-16T00:42:57.552Z,93.70
2018-03-16T00:45:25.013Z,93.70
2018-03-16T00:47:51.644Z,93.70
2018-03-16T00:50:19.024Z,94.20
2018-03-16T00:52:45.647Z,94.20
2018-03-16T00:55:13.066Z,94.40
2018-03-16T00:57:39.705Z,94.40
2018-03-16T01:00:06.400Z,93.80
2018-03-16T01:02:33.025Z,93.40
2018-03-16T01:05:00.411Z,92.80
2018-03-16T01:07:27.064Z,92.80
2018-03-16T01:09:53.667Z,93.40
2018-03-16T01:12:20.309Z,93.60
2018-03-16T01:14:46.958Z,93.80
2018-03-16T01:17:13.600Z,93.60
2018-03-16T01:19:40.194Z,93.60
2018-03-16T01:22:06.877Z,93.30
2018-03-16T01:24:33.507Z,93.70
2018-03-16T01:27:00.183Z,93.20
2018-03-16T01:29:26.850Z,93.70
2018-03-16T01:31:53.503Z,93.80
2018-03-16T01:34:20.882Z,94.10
2018-03-16T01:36:47.564Z,94.10
2018-03-16T01:39:14.963Z,93.70
2018-03-16T01:41:42.384Z,93.50
2018-03-16T01:44:09.039Z,93.40
2018-03-16T01:46:36.439Z,93.60
2018-03-16T01:49:03.171Z,94.00
2018-03-16T01:51:29.845Z,93.80
2018-03-16T01:53:56.464Z,94.20
2018-03-16T01:56:23.143Z,95.00
2018-03-16T01:58:49.776Z,95.30
2018-03-16T02:01:16.629Z,95.30
2018-03-16T02:03:43.015Z,94.80
2018-03-16T02:06:10.192Z,94.90
2018-03-16T02:08:36.561Z,94.90
2018-03-16T02:11:03.121Z,94.60
2018-03-16T02:13:30.294Z,95.10
2018-03-16T02:15:56.747Z,95.10
2018-03-16T02:18:23.174Z,94.70
2018-03-16T02:20:49.649Z,94.80
2018-03-16T02:23:16.059Z,94.70
2018-03-16T02:25:42.491Z,94.90
2018-03-16T02:28:08.887Z,94.70
2018-03-16T02:30:35.280Z,95.20
2018-03-16T02:33:01.667Z,95.50
2018-03-16T02:35:28.815Z,96.40
2018-03-16T02:37:55.931Z,96.70
2018-03-16T02:40:22.388Z,96.70
2018-03-16T02:42:48.776Z,97.00
2018-03-16T02:45:15.180Z,97.30
2018-03-16T02:47:41.565Z,97.40
2018-03-16T02:50:07.959Z,97.70
2018-03-16T02:52:34.360Z,97.80
2018-03-16T02:55:01.495Z,98.10
2018-03-16T02:57:27.861Z,98.40
2018-03-16T02:59:54.395Z,98.10
2018-03-16T03:02:20.947Z,98.00
2018-03-16T03:04:47.517Z,97.90
2018-03-16T03:07:14.071Z,97.90
2018-03-16T03:09:41.340Z,97.90
2018-03-16T03:12:07.924Z,97.90
2018-03-16T03:14:34.462Z,97.90
2018-03-16T03:17:01.039Z,97.90
2018-03-16T03:19:27.624Z,97.90
2018-03-16T03:21:54.240Z,97.90
2018-03-16T03:24:20.824Z,97.80
2018-03-16T03:26:47.389Z,97.80
2018-03-16T03:29:13.934Z,97.80
2018-03-16T03:31:40.519Z,97.70
2018-03-16T03:34:07.110Z,97.60
2018-03-16T03:36:34.402Z,97.60
2018-03-16T03:39:00.948Z,97.50
2018-03-16T03:41:27.567Z,97.50
2018-03-16T03:43:54.091Z,97.50
2018-03-16T03:46:20.708Z,97.40
2018-03-16T03:48:47.991Z,97.30
2018-03-16T03:51:14.545Z,97.30
2018-03-16T03:53:41.067Z,97.20
2018-03-16T03:56:07.728Z,97.10
2018-03-16T03:58:34.245Z,97.00
2018-03-16T04:03:57.191Z,96.90
2018-03-16T04:06:25.391Z,96.80
2018-03-16T04:08:51.813Z,96.80
2018-03-16T04:11:18.244Z,96.70
2018-03-16T04:13:45.493Z,96.40
2018-03-16T04:16:12.707Z,96.20
2018-03-16T04:18:39.168Z,96.20
2018-03-16T04:21:05.598Z,96.00
2018-03-16T04:23:32.812Z,95.70
2018-03-16T04:25:59.285Z,95.70
2018-03-16T04:28:25.737Z,95.40
2018-03-16T04:30:53.291Z,95.30
2018-03-16T04:33:19.886Z,95.30
2018-03-16T04:35:46.342Z,95.30
2018-03-16T04:38:12.777Z,95.30
2018-03-16T04:40:39.197Z,95.20
2018-03-16T04:43:05.640Z,95.00
2018-03-16T04:45:32.112Z,94.90
2018-03-16T04:47:58.588Z,94.80
2018-03-16T04:50:25.038Z,94.70
2018-03-16T04:52:51.532Z,94.60
2018-03-16T04:55:17.969Z,94.40
2018-03-16T04:57:44.498Z,94.30
2018-03-16T05:00:11.027Z,94.30
2018-03-16T05:02:37.512Z,94.30
2018-03-16T05:05:03.961Z,94.30
2018-03-16T05:07:30.417Z,94.30
2018-03-16T05:09:56.841Z,94.30
2018-03-16T05:12:23.292Z,94.30
2018-03-16T05:14:50.462Z,94.20
2018-03-16T05:17:16.857Z,94.20
2018-03-16T05:19:44.308Z,94.20
2018-03-16T05:22:10.746Z,94.20
2018-03-16T05:24:37.264Z,94.20
2018-03-16T05:27:03.721Z,94.30
2018-03-16T05:29:30.213Z,94.30
2018-03-16T05:31:56.653Z,94.30
2018-03-16T05:34:23.168Z,94.40
2018-03-16T05:36:49.623Z,94.50
2018-03-16T05:39:16.069Z,94.60
2018-03-16T05:41:42.525Z,94.70
2018-03-16T05:44:08.978Z,94.80
2018-03-16T05:46:36.153Z,94.80
2018-03-16T05:49:02.664Z,94.80
2018-03-16T05:51:29.120Z,94.90
2018-03-16T05:53:56.329Z,94.90
2018-03-16T05:56:23.767Z,94.90
2018-03-16T05:58:50.256Z,94.90
2018-03-16T06:01:17.454Z,94.80
2018-03-16T06:03:43.938Z,94.80
2018-03-16T06:06:11.118Z,94.60
2018-03-16T06:08:37.576Z,94.60
2018-03-16T06:11:04.054Z,94.40
2018-03-16T06:13:31.276Z,94.30
2018-03-16T06:15:57.693Z,94.60
2018-03-16T06:18:24.189Z,94.20
2018-03-16T06:20:52.365Z,93.90
2018-03-16T06:23:19.583Z,93.80
2018-03-16T06:25:46.037Z,93.70
2018-03-16T06:28:12.513Z,93.70
2018-03-16T06:30:38.957Z,93.50
2018-03-16T06:33:05.421Z,93.50
2018-03-16T06:35:31.864Z,93.50
2018-03-16T06:37:58.376Z,93.40
2018-03-16T06:40:24.837Z,93.30
2018-03-16T06:42:51.531Z,93.10
2018-03-16T06:45:17.941Z,92.80
2018-03-16T06:47:44.401Z,92.70
2018-03-16T06:50:10.905Z,92.50
2018-03-16T06:52:38.090Z,92.10
2018-03-16T06:55:04.518Z,92.00
2018-03-16T06:57:30.954Z,91.70
2018-03-16T06:59:57.398Z,91.60
2018-03-16T07:02:23.832Z,91.40
2018-03-16T07:04:50.256Z,91.30
2018-03-16T07:07:17.573Z,90.90
2018-03-16T07:09:44.016Z,89.70
2018-03-16T07:12:11.186Z,88.00
2018-03-16T07:14:37.646Z,88.00
2018-03-16T07:17:04.060Z,87.80
2018-03-16T07:19:30.542Z,87.80
2018-03-16T07:21:57.022Z,88.00
2018-03-16T07:24:23.481Z,88.00
2018-03-16T07:26:49.907Z,88.60
2018-03-16T07:29:17.430Z,88.30
2018-03-16T07:31:43.856Z,88.00
2018-03-16T07:34:10.360Z,88.10
2018-03-16T07:36:36.804Z,88.80
2018-03-16T07:39:03.333Z,86.60
2018-03-16T07:41:29.798Z,87.10
2018-03-16T07:43:57.020Z,82.80
2018-03-16T07:46:23.461Z,82.80
2018-03-16T07:48:49.970Z,83.10
2018-03-16T07:51:16.388Z,82.80
2018-03-16T07:53:42.845Z,81.10
2018-03-16T07:56:09.302Z,81.80
2018-03-16T07:58:35.765Z,81.80
2018-03-16T08:01:02.277Z,82.10
2018-03-16T08:03:28.715Z,83.20
2018-03-16T08:05:55.517Z,83.50
2018-03-16T08:08:21.957Z,84.60
2018-03-16T08:10:48.400Z,85.60
2018-03-16T08:13:14.845Z,86.20
2018-03-16T08:15:41.317Z,85.30
2018-03-16T08:18:07.829Z,86.30
2018-03-16T08:20:35.014Z,85.70
2018-03-16T08:23:01.578Z,85.70
2018-03-16T08:25:28.066Z,86.40
2018-03-16T08:27:54.618Z,86.40
2018-03-16T08:30:21.913Z,86.20
2018-03-16T08:32:48.355Z,86.10
2018-03-16T08:35:14.758Z,86.30
2018-03-16T08:37:41.227Z,85.70
2018-03-16T08:40:07.677Z,86.70
2018-03-16T08:42:34.165Z,86.80
2018-03-16T08:45:00.735Z,84.20
2018-03-16T08:47:27.183Z,84.00
2018-03-16T08:49:53.691Z,82.40
2018-03-16T08:52:20.145Z,82.30
2018-03-16T08:54:46.590Z,80.10
2018-03-16T08:57:13.158Z,78.60
2018-03-16T08:59:39.909Z,79.10
2018-03-16T09:02:06.578Z,78.90
2018-03-16T09:04:33.264Z,79.40
2018-03-16T09:06:59.812Z,80.30
2018-03-16T09:09:27.014Z,80.20
2018-03-16T09:11:53.472Z,80.20
2018-03-16T09:14:19.962Z,79.30
2018-03-16T09:16:46.444Z,79.20
2018-03-16T09:19:13.652Z,79.80
2018-03-16T09:21:40.136Z,79.90
2018-03-16T09:24:06.601Z,79.00
2018-03-16T09:26:33.057Z,80.40
2018-03-16T09:28:59.573Z,80.00
2018-03-16T09:31:26.761Z,80.10
2018-03-16T09:33:53.215Z,79.90
2018-03-16T09:36:19.633Z,79.70
2018-03-16T09:38:46.117Z,80.40
2018-03-16T09:41:13.307Z,81.50
2018-03-16T09:43:39.759Z,81.40
2018-03-16T09:46:06.193Z,83.60
2018-03-16T09:48:32.671Z,84.50
2018-03-16T09:50:59.882Z,84.70
2018-03-16T09:53:30.292Z,84.60
2018-03-16T09:55:56.824Z,84.30
2018-03-16T09:58:23.297Z,84.30
2018-03-16T10:00:49.746Z,83.00
2018-03-16T10:03:16.186Z,84.10
2018-03-16T10:05:43.403Z,86.30
2018-03-16T10:08:09.848Z,86.10
2018-03-16T10:10:36.302Z,85.70
2018-03-16T10:13:03.538Z,86.30
2018-03-16T10:15:29.989Z,86.20
2018-03-16T10:17:56.484Z,87.50
2018-03-16T10:20:22.918Z,87.40
2018-03-16T10:22:49.432Z,88.10
2018-03-16T10:25:15.861Z,88.90
2018-03-16T10:27:42.354Z,89.10
2018-03-16T10:30:08.819Z,89.90
2018-03-16T10:32:35.366Z,89.70
2018-03-16T10:35:01.790Z,89.30
2018-03-16T10:37:28.266Z,89.80
2018-03-16T10:39:54.722Z,89.90
2018-03-16T10:42:21.166Z,89.40
2018-03-16T10:44:47.606Z,90.30
2018-03-16T10:47:14.077Z,90.40
2018-03-16T10:49:40.524Z,90.60
2018-03-16T10:52:06.977Z,90.50
2018-03-16T10:54:33.405Z,90.10
2018-03-16T10:56:59.874Z,90.40
2018-03-16T10:59:26.377Z,90.60
2018-03-16T11:01:54.838Z,90.30
2018-03-16T11:04:27.413Z,90.20
2018-03-16T11:06:59.962Z,90.10
2018-03-16T11:09:27.154Z,88.40
2018-03-16T11:11:53.646Z,88.40
2018-03-16T11:14:20.858Z,90.30
2018-03-16T11:16:47.404Z,90.30
2018-03-16T11:19:13.874Z,88.90
2018-03-16T11:21:40.382Z,88.50
2018-03-16T11:24:06.865Z,88.90
2018-03-16T11:26:33.500Z,88.10
2018-03-16T11:29:00.812Z,88.20
2018-03-16T11:31:27.249Z,88.10
2018-03-16T11:33:53.701Z,89.30
2018-03-16T11:36:20.177Z,89.10
2018-03-16T11:38:46.617Z,89.80
2018-03-16T11:41:13.037Z,88.90
2018-03-16T11:43:39.485Z,88.70
2018-03-16T11:46:05.914Z,89.50
2018-03-16T11:48:32.323Z,90.20
2018-03-16T11:50:59.509Z,90.40
2018-03-16T11:53:25.976Z,90.40
2018-03-16T11:55:52.391Z,90.60
2018-03-16T11:58:18.776Z,90.80
2018-03-16T12:00:45.997Z,90.30
2018-03-16T12:03:12.412Z,90.40
2018-03-16T12:05:38.954Z,90.50
2018-03-16T12:08:07.566Z,89.40
2018-03-16T12:10:34.673Z,89.40
2018-03-16T12:13:02.500Z,89.50
2018-03-16T12:15:30.363Z,89.40
2018-03-16T12:17:57.438Z,89.40
2018-03-16T12:20:24.486Z,89.30
2018-03-16T12:22:50.959Z,89.70
2018-03-16T12:25:18.540Z,88.90
2018-03-16T12:27:44.968Z,88.20
2018-03-16T12:30:11.448Z,88.00
2018-03-16T12:32:37.896Z,88.20
2018-03-16T12:35:04.541Z,87.40
2018-03-16T12:37:30.979Z,85.00
2018-03-16T12:39:57.396Z,83.40
2018-03-16T12:42:23.805Z,84.10
2018-03-16T12:44:50.957Z,85.80
2018-03-16T12:47:18.144Z,85.10
2018-03-16T12:49:45.307Z,81.40
2018-03-16T12:52:11.710Z,81.20
2018-03-16T12:54:38.881Z,76.00
2018-03-16T12:57:06.330Z,76.00
2018-03-16T12:59:32.788Z,77.50
2018-03-16T13:01:59.251Z,77.20
2018-03-16T13:04:25.698Z,74.40
2018-03-16T13:06:52.151Z,72.20
2018-03-16T13:09:18.685Z,74.90
2018-03-16T13:11:45.160Z,74.50
2018-03-16T13:14:11.586Z,71.60
2018-03-16T13:16:38.084Z,73.20
2018-03-16T13:19:04.538Z,73.30
2018-03-16T13:21:31.020Z,72.90
2018-03-16T13:23:57.522Z,71.90
2018-03-16T13:26:23.986Z,66.10
2018-03-16T13:28:50.466Z,65.70
2018-03-16T13:31:17.705Z,65.90
2018-03-16T13:33:44.889Z,65.90
2018-03-16T13:36:11.345Z,65.80
2018-03-16T13:38:37.833Z,65.90
2018-03-16T13:41:05.022Z,64.80
2018-03-16T13:43:31.494Z,64.90
2018-03-16T13:45:57.982Z,65.50
2018-03-16T13:48:24.639Z,65.50
2018-03-16T13:50:51.165Z,67.00
2018-03-16T13:53:17.611Z,67.70
2018-03-16T13:55:44.062Z,68.00
2018-03-16T13:58:10.522Z,68.70
2018-03-16T14:00:37.858Z,69.50
2018-03-16T14:03:04.321Z,69.50
2018-03-16T14:05:31.548Z,68.40
2018-03-16T14:07:58.003Z,68.30
2018-03-16T14:10:24.472Z,69.60
2018-03-16T14:12:50.949Z,68.80
2018-03-16T14:15:17.489Z,66.40
2018-03-16T14:17:43.962Z,65.80
2018-03-16T14:20:10.491Z,66.70
2018-03-16T14:22:37.013Z,65.40
2018-03-16T14:25:03.524Z,68.30
2018-03-16T14:27:30.071Z,66.30
2018-03-16T14:29:56.594Z,65.60
2018-03-16T14:32:23.068Z,65.60
2018-03-16T14:34:51.285Z,64.90
2018-03-16T14:37:18.746Z,64.90
2018-03-16T14:39:45.340Z,65.80
2018-03-16T14:42:12.505Z,68.00
2018-03-16T14:44:39.014Z,68.00
2018-03-16T14:47:05.469Z,68.00
2018-03-16T14:49:32.720Z,65.60
2018-03-16T14:51:59.913Z,65.40
2018-03-16T14:54:26.425Z,65.30
2018-03-16T14:56:52.898Z,66.70
2018-03-16T14:59:19.396Z,67.50
2018-03-16T15:01:45.955Z,66.60
2018-03-16T15:04:12.374Z,66.90
2018-03-16T15:06:38.863Z,67.60
2018-03-16T15:09:05.334Z,67.30
2018-03-16T15:11:31.837Z,65.70
2018-03-16T15:13:58.341Z,66.40
2018-03-16T15:16:24.851Z,66.50
2018-03-16T15:18:58.833Z,66.60
2018-03-16T15:21:26.081Z,60.20
2018-03-16T15:23:52.603Z,60.10
2018-03-16T15:26:19.063Z,61.10
2018-03-16T15:28:45.584Z,59.20
2018-03-16T15:31:16.714Z,60.50
2018-03-16T15:33:43.143Z,60.50
2018-03-16T15:36:09.615Z,59.90
2018-03-16T15:38:36.809Z,58.10
2018-03-16T15:41:03.324Z,58.10
2018-03-16T15:43:29.780Z,57.00
2018-03-16T15:45:57.028Z,56.20
2018-03-16T15:48:23.432Z,56.10
2018-03-16T15:50:49.923Z,55.70
2018-03-16T15:53:17.130Z,54.50
2018-03-16T15:55:43.579Z,54.50
2018-03-16T15:58:10.090Z,55.80
2018-03-16T16:00:37.279Z,55.90
2018-03-16T16:03:03.797Z,55.90
2018-03-16T16:05:30.344Z,56.40
2018-03-16T16:07:56.772Z,56.60
2018-03-16T16:10:23.367Z,55.50
2018-03-16T16:12:49.914Z,55.00
2018-03-16T16:15:16.363Z,54.70
2018-03-16T16:17:43.547Z,55.10
2018-03-16T16:20:10.010Z,55.10
2018-03-16T16:22:36.562Z,55.20
2018-03-16T16:25:03.119Z,55.30
2018-03-16T16:27:29.595Z,55.40
2018-03-16T16:29:56.078Z,56.20
2018-03-16T16:32:23.420Z,57.70
2018-03-16T16:34:50.052Z,57.80
2018-03-16T16:37:17.296Z,59.20
2018-03-16T16:39:43.938Z,59.20
2018-03-16T16:42:12.014Z,60.80
2018-03-16T16:44:39.197Z,61.70
2018-03-16T16:47:05.668Z,63.40
2018-03-16T16:49:33.118Z,64.60
2018-03-16T16:51:59.943Z,65.40
2018-03-16T16:54:26.403Z,66.30
2018-03-16T16:56:52.876Z,66.60
2018-03-16T16:59:19.415Z,67.20
2018-03-16T17:01:45.895Z,67.80
2018-03-16T17:04:12.300Z,68.40
2018-03-16T17:06:38.840Z,69.10
2018-03-16T17:09:06.032Z,70.40
2018-03-16T17:11:32.474Z,70.40
2018-03-16T17:13:58.884Z,71.20
2018-03-16T17:16:25.392Z,71.20
2018-03-16T17:18:51.844Z,71.50
2018-03-16T17:21:18.484Z,72.10
2018-03-16T17:23:44.952Z,72.20
2018-03-16T17:26:11.411Z,72.30
2018-03-16T17:28:37.833Z,73.10
2018-03-16T17:31:06.112Z,73.50
2018-03-16T17:33:34.821Z,74.50
2018-03-16T17:36:01.314Z,74.50
2018-03-16T17:38:28.177Z,74.60
2018-03-16T17:40:54.771Z,75.30
2018-03-16T17:43:21.221Z,75.60
2018-03-16T17:45:47.648Z,76.00
2018-03-16T17:48:14.067Z,76.70
2018-03-16T17:50:41.876Z,77.30
2018-03-16T17:53:08.304Z,76.90
2018-03-16T17:55:34.761Z,77.40
2018-03-16T17:58:01.505Z,77.80
2018-03-16T18:00:27.978Z,78.60
2018-03-16T18:02:55.580Z,79.50
2018-03-16T18:05:22.254Z,79.50
2018-03-16T18:07:49.436Z,80.40
2018-03-16T18:10:15.985Z,80.40
2018-03-16T18:12:42.447Z,81.30
2018-03-16T18:15:08.931Z,82.00
2018-03-16T18:17:35.380Z,82.70
2018-03-16T18:20:02.206Z,83.00
2018-03-16T18:22:29.465Z,85.20
2018-03-16T18:24:56.655Z,84.90
2018-03-16T18:27:23.127Z,84.90
2018-03-16T18:29:49.560Z,85.50
2018-03-16T18:32:15.995Z,85.50
2018-03-16T18:34:42.392Z,85.40
2018-03-16T18:37:08.885Z,85.80
2018-03-16T18:39:36.043Z,85.60
2018-03-16T18:42:02.656Z,85.40
2018-03-16T18:44:29.049Z,85.10
2018-03-16T18:46:55.515Z,86.20
2018-03-16T18:49:21.934Z,86.50
2018-03-16T18:51:48.390Z,85.90
2018-03-16T18:54:14.807Z,86.90
2018-03-16T18:56:41.305Z,88.40
2018-03-16T18:59:07.705Z,88.70
2018-03-16T19:01:34.167Z,88.90
2018-03-16T19:04:00.641Z,88.40
2018-03-16T19:09:23.774Z,88.20
2018-03-16T19:11:50.470Z,89.40
2018-03-16T19:14:17.874Z,90.00
2018-03-16T19:16:44.534Z,90.00
2018-03-16T19:19:11.241Z,89.80
2018-03-16T19:21:37.910Z,90.10
2018-03-16T19:24:04.602Z,90.10
2018-03-16T19:26:31.271Z,90.00
2018-03-16T19:28:57.942Z,90.20
2018-03-16T19:31:24.568Z,90.20
2018-03-16T19:33:52.026Z,90.20
2018-03-16T19:36:18.684Z,90.50
2018-03-16T19:38:45.392Z,90.10
2018-03-16T19:41:12.002Z,90.00
2018-03-16T19:43:38.669Z,90.00
2018-03-16T19:46:05.335Z,90.30
2018-03-16T19:48:32.151Z,90.40
2018-03-16T19:50:58.779Z,90.70
2018-03-16T19:53:25.467Z,90.40
2018-03-16T19:55:52.139Z,90.40
2018-03-16T19:58:18.833Z,90.50
2018-03-16T20:00:45.531Z,91.10
2018-03-16T20:03:12.217Z,91.80
2018-03-16T20:05:38.868Z,91.50
2018-03-16T20:08:05.616Z,91.40
2018-03-16T20:10:32.290Z,91.30
2018-03-16T20:12:58.963Z,91.70
2018-03-16T20:15:25.596Z,91.70
2018-03-16T20:17:52.278Z,91.40
2018-03-16T20:20:19.665Z,91.60
2018-03-16T20:22:46.345Z,91.60
2018-03-16T20:25:12.988Z,91.60
2018-03-16T20:27:39.692Z,91.60
2018-03-16T20:30:06.315Z,91.60
2018-03-16T20:32:32.983Z,91.70
2018-03-16T20:34:59.631Z,91.90
2018-03-16T20:37:26.371Z,92.40
2018-03-16T20:39:53.038Z,92.50
2018-03-16T20:42:19.705Z,92.50
2018-03-16T20:44:46.336Z,93.10
2018-03-16T20:47:13.000Z,93.30
2018-03-16T20:49:39.612Z,93.60
2018-03-16T20:52:06.324Z,93.70
2018-03-16T20:54:32.960Z,93.80
2018-03-16T20:56:59.611Z,94.10
2018-03-16T20:59:27.013Z,94.10
2018-03-16T21:01:53.711Z,94.10
2018-03-16T21:04:20.358Z,94.00
2018-03-16T21:06:47.791Z,94.30
2018-03-16T21:09:14.931Z,94.30
2018-03-16T21:11:41.611Z,93.90
2018-03-16T21:14:08.234Z,93.30
2018-03-16T21:16:34.900Z,93.90
2018-03-16T21:19:04.341Z,93.40
2018-03-16T21:21:31.005Z,93.40
2018-03-16T21:23:57.648Z,93.10
2018-03-16T21:26:24.586Z,93.40
2018-03-16T21:28:51.225Z,93.90
2018-03-16T21:31:17.879Z,94.30
2018-03-16T21:33:44.530Z,94.50
2018-03-16T21:36:11.195Z,94.50
2018-03-16T21:38:37.887Z,94.80
2018-03-16T21:41:04.540Z,94.90
2018-03-16T21:43:31.159Z,95.00
2018-03-16T21:45:57.853Z,95.30
2018-03-16T21:48:24.430Z,95.20
2018-03-16T21:50:51.164Z,94.80
2018-03-16T21:53:17.790Z,94.60
2018-03-16T21:55:44.428Z,94.40
2018-03-16T21:58:11.060Z,94.40
2018-03-16T22:00:37.728Z,94.60
2018-03-16T22:03:04.372Z,94.90
2018-03-16T22:05:31.169Z,95.10
2018-03-16T22:07:58.515Z,95.00
2018-03-16T22:10:25.199Z,95.00
2018-03-16T22:12:51.858Z,94.90
2018-03-16T22:15:19.332Z,94.90
2018-03-16T22:17:46.767Z,94.80
2018-03-16T22:20:13.546Z,94.80
2018-03-16T22:22:40.960Z,95.00
2018-03-16T22:25:07.639Z,95.00
2018-03-16T22:27:34.330Z,95.00
2018-03-16T22:30:01.026Z,95.00
2018-03-16T22:32:27.757Z,95.00
2018-03-16T22:34:54.451Z,94.80
2018-03-16T22:37:21.162Z,95.10
2018-03-16T22:39:47.912Z,95.20
2018-03-16T22:42:14.587Z,95.00
2018-03-16T22:44:41.266Z,95.30
2018-03-16T22:47:08.684Z,95.80
2018-03-16T22:49:35.381Z,95.80
2018-03-16T22:52:02.008Z,95.90
2018-03-16T22:54:29.508Z,95.70
2018-03-16T22:56:56.870Z,95.70
2018-03-16T22:59:23.512Z,95.60
2018-03-16T23:01:50.172Z,95.50
2018-03-16T23:04:16.884Z,95.30
2018-03-16T23:06:44.329Z,95.40
2018-03-16T23:09:11.426Z,95.40
2018-03-16T23:11:38.135Z,95.50
2018-03-16T23:14:04.926Z,95.40
2018-03-16T23:16:32.317Z,95.00
2018-03-16T23:18:58.968Z,95.00
2018-03-16T23:21:25.608Z,94.70
2018-03-16T23:23:52.305Z,94.70
2018-03-16T23:26:18.976Z,94.70
2018-03-16T23:28:46.524Z,94.70
2018-03-16T23:31:13.190Z,94.70
2018-03-16T23:33:39.928Z,94.70
2018-03-16T23:36:07.008Z,94.70
2018-03-16T23:38:33.744Z,94.70
2018-03-16T23:41:00.425Z,94.70
2018-03-16T23:43:27.843Z,94.70
2018-03-16T23:45:54.471Z,94.70
2018-03-16T23:48:21.136Z,94.70
2018-03-16T23:50:47.803Z,94.70
2018-03-16T23:53:14.484Z,94.70
2018-03-16T23:55:41.172Z,94.70
2018-03-16T23:58:08.599Z,94.60
